Time;durP1;ratioP1;P1;durP2;ratioP2;P2;SDS_P1;SDS_P2;PMS_P1;PMS_P2;Temp;Humidity;BMP_temperature;BMP_pressure;BME280_temperature;BME280_humidity;BME280_pressure;Samples;Min_cycle;Max_cycle;Signal;HPM_P1;HPM_P2
2022/11/27 00:01:22;;;;;;;0.10;0.10;;;4.50;99.90;;;;;;4984275;28;20026;-78
2022/11/27 00:03:48;;;;;;;0.10;0.10;;;4.50;99.90;;;;;;4984631;28;20420;-77
2022/11/27 00:06:18;;;;;;;0.63;0.63;;;4.50;99.90;;;;;;4984787;28;20046;-78
2022/11/27 00:08:45;;;;;;;144.20;127.63;;;4.50;99.90;;;;;;4967384;28;20018;-78
2022/11/27 00:11:17;;;;;;;0.10;0.10;;;4.50;99.90;;;;;;4985044;28;20029;-77
2022/11/27 00:13:43;;;;;;;1.05;1.05;;;;;;;;;;4967044;28;20038;-78
2022/11/27 00:16:11;;;;;;;0.28;0.28;;;4.40;99.90;;;;;;4967353;28;20030;-77
2022/11/27 00:18:37;;;;;;;2.78;2.65;;;;;;;;;;4967343;28;20018;-78
2022/11/27 00:21:06;;;;;;;0.10;0.10;;;4.50;99.90;;;;;;4985360;28;20045;-77
2022/11/27 00:23:33;;;;;;;20.95;19.75;;;4.40;99.90;;;;;;4966710;28;20196;-78
2022/11/27 00:25:59;;;;;;;1.45;1.45;;;4.40;99.90;;;;;;4967846;28;20026;-77
2022/11/27 00:28:28;;;;;;;0.80;0.80;;;4.20;99.90;;;;;;4985650;28;20312;-77
2022/11/27 00:31:01;;;;;;;1.75;1.65;;;4.40;99.90;;;;;;4966780;28;20410;-78
2022/11/27 00:33:27;;;;;;;51.97;35.40;;;4.50;99.90;;;;;;4986062;28;20251;-78
2022/11/27 00:35:54;;;;;;;0.20;0.20;;;4.50;99.90;;;;;;4967484;28;20293;-78
2022/11/27 00:38:20;;;;;;;4.15;4.03;;;4.50;99.90;;;;;;4986074;28;20030;-78
2022/11/27 00:40:46;;;;;;;2.60;2.45;;;;;;;;;;4987125;28;20100;-78
2022/11/27 00:43:13;;;;;;;5.25;5.05;;;4.50;99.90;;;;;;4987984;28;20235;-78
2022/11/27 00:45:39;;;;;;;1.17;1.17;;;4.50;99.90;;;;;;4986059;28;20078;-77
2022/11/27 00:48:06;;;;;;;0.20;0.20;;;4.50;99.90;;;;;;4985738;28;20093;-77
2022/11/27 00:50:32;;;;;;;3.72;3.55;;;5.00;99.90;;;;;;4967447;28;20027;-77
2022/11/27 00:52:58;;;;;;;1.10;1.10;;;4.50;99.90;;;;;;4986081;28;20037;-77
2022/11/27 00:55:26;;;;;;;48.13;45.90;;;4.50;99.90;;;;;;4966673;28;20026;-77
2022/11/27 00:57:52;;;;;;;1.35;1.33;;;4.60;99.90;;;;;;4984310;28;20354;-78
2022/11/27 01:00:19;;;;;;;7.93;7.57;;;4.60;99.90;;;;;;4967604;28;20485;-79
2022/11/27 01:02:45;;;;;;;63.67;60.28;;;4.60;99.90;;;;;;4986987;28;20045;-77
2022/11/27 01:05:10;;;;;;;16.48;15.35;;;4.60;99.90;;;;;;4988177;28;20477;-78
2022/11/27 01:07:36;;;;;;;0.57;0.57;;;4.50;99.90;;;;;;4983929;28;20210;-77
2022/11/27 01:10:02;;;;;;;17.30;15.98;;;4.50;99.90;;;;;;4983769;28;20036;-77
2022/11/27 01:12:29;;;;;;;2.65;2.55;;;4.50;99.90;;;;;;4983570;28;20114;-78
2022/11/27 01:14:54;;;;;;;0.70;0.70;;;4.50;99.90;;;;;;4983317;28;20312;-77
2022/11/27 01:17:21;;;;;;;0.65;0.65;;;4.50;99.90;;;;;;4983243;28;20474;-78
2022/11/27 01:19:46;;;;;;;3.60;3.40;;;4.50;99.90;;;;;;4966298;28;20035;-77
2022/11/27 01:22:12;;;;;;;4.22;4.03;;;4.50;99.90;;;;;;4984949;28;20622;-77
2022/11/27 01:24:38;;;;;;;41.88;10.18;;;4.50;99.90;;;;;;4987407;28;20030;-77
2022/11/27 01:27:05;;;;;;;32.75;21.65;;;;;;;;;;4987523;28;20033;-77
2022/11/27 01:29:31;;;;;;;16.77;6.75;;;4.60;99.90;;;;;;4969148;28;20105;-77
2022/11/27 01:31:57;;;;;;;0.10;0.10;;;4.60;99.90;;;;;;4986137;28;20054;-77
2022/11/27 01:34:23;;;;;;;4.20;4.00;;;;;;;;;;4970792;28;20042;-77
2022/11/27 01:36:49;;;;;;;0.17;0.17;;;4.60;99.90;;;;;;4989698;28;20057;-79
2022/11/27 01:39:19;;;;;;;3.05;2.28;;;6.10;99.90;;;;;;4974919;28;20038;-78
2022/11/27 01:41:46;;;;;;;0.10;0.10;;;4.70;99.90;;;;;;4992808;28;20057;-76
2022/11/27 01:44:24;;;;;;;0.10;0.10;;;4.50;99.90;;;;;;4991589;28;20030;-77
2022/11/27 01:46:53;;;;;;;6.70;6.43;;;4.40;99.90;;;;;;4988859;28;20054;-77
2022/11/27 01:49:47;;;;;;;12.95;12.23;;;4.70;99.90;;;;;;4985541;28;20018;-77
2022/11/27 01:52:42;;;;;;;3.30;3.13;;;4.60;99.90;;;;;;4963969;28;20026;-77
2022/11/27 01:55:19;;;;;;;0.30;0.30;;;4.70;99.90;;;;;;4983315;28;20037;-77
2022/11/27 01:57:52;;;;;;;4.93;4.70;;;2.40;99.90;;;;;;4967961;28;20078;-77
2022/11/27 02:00:21;;;;;;;0.15;0.15;;;4.70;99.90;;;;;;4985394;28;20030;-77
2022/11/27 02:02:47;;;;;;;0.10;0.10;;;4.70;99.90;;;;;;4988402;28;20117;-77
2022/11/27 02:05:23;;;;;;;0.10;0.10;;;4.60;99.90;;;;;;4986684;28;20112;-76
2022/11/27 02:07:51;;;;;;;1.80;1.80;;;4.50;99.90;;;;;;4984759;28;20027;-77
2022/11/27 02:10:17;;;;;;;0.30;0.30;;;;;;;;;;4984685;28;20033;-77
2022/11/27 02:12:51;;;;;;;0.40;0.40;;;4.50;99.90;;;;;;4984567;28;20031;-76
2022/11/27 02:15:27;;;;;;;1.60;1.55;;;4.50;99.90;;;;;;4983926;28;20022;-77
2022/11/27 02:18:17;;;;;;;1.95;1.85;;;4.50;99.90;;;;;;4968882;28;20022;-77
2022/11/27 02:20:51;;;;;;;10.73;9.65;;;4.50;99.90;;;;;;4987846;28;20026;-77
2022/11/27 02:23:50;;;;;;;14.55;13.85;;;4.50;99.90;;;;;;4990605;28;20042;-77
2022/11/27 02:26:24;;;;;;;3.95;3.83;;;4.10;99.90;;;;;;4989272;28;20050;-76
2022/11/27 02:29:00;;;;;;;8.68;8.27;;;4.60;99.90;;;;;;4989746;28;20023;-77
2022/11/27 02:31:47;;;;;;;0.88;0.85;;;5.10;99.90;;;;;;4986063;28;20291;-77
2022/11/27 02:34:15;;;;;;;2.70;2.58;;;4.60;99.90;;;;;;4983114;28;20122;-77
2022/11/27 02:36:48;;;;;;;5.82;5.55;;;4.60;99.90;;;;;;4965091;28;20209;-77
2022/11/27 02:39:24;;;;;;;0.63;0.57;;;4.60;99.90;;;;;;4986973;28;20030;-76
2022/11/27 02:42:00;;;;;;;0.82;0.82;;;4.60;99.90;;;;;;4983670;28;20058;-77
2022/11/27 02:44:30;;;;;;;0.93;0.93;;;4.60;99.90;;;;;;4982198;28;20523;-77
2022/11/27 02:46:56;;;;;;;2.95;2.75;;;5.10;99.90;;;;;;4965123;28;20032;-77
2022/11/27 02:49:26;;;;;;;18.00;16.65;;;4.60;99.90;;;;;;4965198;28;20061;-77
2022/11/27 02:51:57;;;;;;;11.60;11.15;;;4.60;99.90;;;;;;4964568;28;20038;-77
2022/11/27 02:54:27;;;;;;;0.75;0.75;;;1.90;99.90;;;;;;4983123;28;20038;-76
2022/11/27 02:56:54;;;;;;;5.13;4.88;;;4.50;99.90;;;;;;4982806;28;20090;-77
2022/11/27 02:59:25;;;;;;;13.23;12.77;;;4.50;99.90;;;;;;4982318;28;20034;-77
2022/11/27 03:01:56;;;;;;;30.10;28.35;;;4.00;99.90;;;;;;4964934;28;20058;-77
2022/11/27 03:04:32;;;;;;;7.53;7.22;;;4.40;99.90;;;;;;4982218;28;20033;-77
2022/11/27 03:07:03;;;;;;;0.10;0.10;;;4.50;99.90;;;;;;4981681;28;20053;-76
2022/11/27 03:09:39;;;;;;;19.17;15.45;;;5.20;99.90;;;;;;4982036;28;20121;-77
2022/11/27 03:12:07;;;;;;;0.10;0.10;;;4.50;99.90;;;;;;4964789;28;20084;-77
2022/11/27 03:14:35;;;;;;;0.38;0.38;;;4.40;99.90;;;;;;4984834;28;20096;-76
2022/11/27 03:17:19;;;;;;;0.15;0.15;;;4.40;99.90;;;;;;4985463;28;20509;-77
2022/11/27 03:19:53;;;;;;;;;;;4.40;99.90;;;;;;4986544;28;20110;-76
2022/11/27 03:22:19;;;;;;;2.03;1.95;;;4.40;99.90;;;;;;4986841;28;19992;-77
2022/11/27 03:24:48;;;;;;;1.77;1.73;;;4.40;99.90;;;;;;4988684;28;20093;-77
2022/11/27 03:27:20;;;;;;;0.38;0.38;;;4.40;99.90;;;;;;4969751;28;20064;-77
2022/11/27 03:29:53;;;;;;;11.70;11.27;;;4.40;99.90;;;;;;4985505;28;20030;-77
2022/11/27 03:32:19;;;;;;;0.88;0.85;;;4.50;99.90;;;;;;4986477;28;20022;-76
2022/11/27 03:34:46;;;;;;;0.00;0.00;;;4.40;99.90;;;;;;4989025;28;20057;-77
2022/11/27 03:37:12;;;;;;;0.65;0.65;;;4.40;99.90;;;;;;4968174;28;20085;-77
2022/11/27 03:39:38;;;;;;;2.25;2.15;;;4.50;99.90;;;;;;4985113;28;20019;-77
2022/11/27 03:42:42;;;;;;;0.10;0.10;;;4.40;99.90;;;;;;4985122;28;20304;-77
2022/11/27 03:45:26;;;;;;;0.73;0.73;;;4.50;99.90;;;;;;4985594;28;20184;-77
2022/11/27 03:48:35;;;;;;;3.65;3.50;;;4.50;99.90;;;;;;4985363;28;20019;-76
2022/11/27 03:51:09;;;;;;;0.65;0.65;;;4.50;99.90;;;;;;4967060;28;20532;-77
2022/11/27 03:53:43;;;;;;;1.95;1.85;;;4.40;99.90;;;;;;4985058;28;20264;-77
2022/11/27 03:56:47;;;;;;;1.55;1.50;;;4.50;99.90;;;;;;4984630;28;20092;-77
2022/11/27 03:59:26;;;;;;;3.97;3.83;;;4.40;99.90;;;;;;4966884;28;20026;-77
2022/11/27 04:01:52;;;;;;;28.92;26.98;;;;;;;;;;4986012;28;20093;-77
2022/11/27 04:04:18;;;;;;;10.82;10.43;;;4.40;99.90;;;;;;4986291;28;20099;-77
2022/11/27 04:06:44;;;;;;;0.20;0.20;;;4.40;99.90;;;;;;4984615;28;20137;-78
2022/11/27 04:09:10;;;;;;;0.30;0.30;;;4.40;99.90;;;;;;4967818;28;20532;-77
2022/11/27 04:11:36;;;;;;;0.47;0.47;;;4.40;99.90;;;;;;4985119;28;20036;-77
2022/11/27 04:14:02;;;;;;;1.75;1.65;;;4.30;99.90;;;;;;4985947;28;20503;-77
2022/11/27 04:16:28;;;;;;;10.27;9.43;;;;;;;;;;4985239;28;20509;-77
2022/11/27 04:18:54;;;;;;;0.35;0.35;;;4.30;99.90;;;;;;4985286;28;20026;-77
2022/11/27 04:21:22;;;;;;;1.35;1.35;;;4.30;99.90;;;;;;4985637;28;20154;-77
2022/11/27 04:23:48;;;;;;;0.43;0.43;;;4.40;99.90;;;;;;4968039;28;20605;-77
2022/11/27 04:26:14;;;;;;;7.07;6.78;;;4.40;99.90;;;;;;4985269;28;20354;-77
2022/11/27 04:28:39;;;;;;;0.30;0.30;;;4.40;99.90;;;;;;4968332;28;20030;-77
2022/11/27 04:31:05;;;;;;;0.52;0.50;;;;;;;;;;4986546;28;20022;-76
2022/11/27 04:33:32;;;;;;;8.85;8.15;;;;;;;;;;4986846;28;20042;-76
2022/11/27 04:35:59;;;;;;;18.00;4.10;;;;;;;;;;4987583;28;20041;-76
2022/11/27 04:38:24;;;;;;;0.20;0.20;;;4.40;99.90;;;;;;4987839;28;20026;-77
2022/11/27 04:40:52;;;;;;;8.23;7.88;;;4.40;99.90;;;;;;4988936;28;20065;-77
2022/11/27 04:43:18;;;;;;;0.30;0.30;;;4.40;99.90;;;;;;4989092;28;20053;-77
2022/11/27 04:45:46;;;;;;;1.15;1.15;;;4.30;99.90;;;;;;4988761;28;20034;-77
2022/11/27 04:48:11;;;;;;;0.73;0.73;;;4.60;99.90;;;;;;4990464;28;20304;-77
2022/11/27 04:50:38;;;;;;;0.10;0.10;;;4.50;99.90;;;;;;4991526;28;20023;-77
2022/11/27 04:53:03;;;;;;;3.15;3.05;;;4.60;99.90;;;;;;4975722;28;20038;-78
2022/11/27 04:55:30;;;;;;;93.85;86.43;;;4.60;99.90;;;;;;4991830;28;20050;-77
2022/11/27 04:57:56;;;;;;;0.20;0.20;;;4.10;99.90;;;;;;4973918;28;20046;-77
2022/11/27 05:00:22;;;;;;;0.10;0.10;;;4.90;99.90;;;;;;4986241;28;20037;-77
2022/11/27 05:02:49;;;;;;;1.75;1.65;;;4.70;99.90;;;;;;4983827;28;20030;-77
2022/11/27 05:05:16;;;;;;;0.50;0.50;;;4.60;99.90;;;;;;4984109;28;20039;-77
2022/11/27 05:07:42;;;;;;;0.68;0.68;;;4.50;99.90;;;;;;4983240;28;20030;-77
2022/11/27 05:10:09;;;;;;;16.83;16.08;;;4.70;99.90;;;;;;4983662;28;20022;-77
2022/11/27 05:12:35;;;;;;;0.25;0.25;;;4.60;99.90;;;;;;4983684;28;20307;-77
2022/11/27 05:15:01;;;;;;;6.40;6.05;;;;;;;;;;4965296;28;20525;-77
2022/11/27 05:17:27;;;;;;;11.95;11.50;;;4.60;99.90;;;;;;4969170;28;20474;-80
2022/11/27 05:20:05;;;;;;;24.58;7.28;;;1.10;99.90;;;;;;4985838;28;20251;-80
2022/11/27 05:22:31;;;;;;;9.95;9.50;;;;;;;;;;4966710;28;20042;-79
2022/11/27 05:24:58;;;;;;;0.10;0.10;;;4.60;99.90;;;;;;4951241;28;20229;-77
2022/11/27 05:27:26;;;;;;;7.03;5.35;;;4.60;99.90;;;;;;4964343;28;20042;-77
2022/11/27 05:29:52;;;;;;;1.67;1.65;;;;;;;;;;4965649;28;20022;-78
2022/11/27 05:32:18;;;;;;;9.88;9.43;;;4.60;99.90;;;;;;4967073;28;20247;-77
2022/11/27 05:34:43;;;;;;;20.85;18.83;;;4.20;99.90;;;;;;4984270;28;20311;-77
2022/11/27 05:37:12;;;;;;;0.10;0.10;;;4.60;99.90;;;;;;4983127;28;20513;-77
2022/11/27 05:39:38;;;;;;;0.25;0.25;;;;;;;;;;4964866;28;20038;-77
2022/11/27 05:42:04;;;;;;;0.30;0.30;;;4.60;99.90;;;;;;4948794;28;20416;-78
2022/11/27 05:44:30;;;;;;;0.17;0.17;;;4.60;99.90;;;;;;4966112;28;20106;-77
2022/11/27 05:46:58;;;;;;;0.10;0.10;;;4.60;99.90;;;;;;4965572;28;20335;-77
2022/11/27 05:49:25;;;;;;;10.10;9.55;;;4.60;99.90;;;;;;4983736;28;20019;-77
2022/11/27 05:51:54;;;;;;;21.92;11.43;;;4.50;99.90;;;;;;4983456;28;20022;-78
2022/11/27 05:54:19;;;;;;;0.10;0.10;;;4.60;99.90;;;;;;4966568;28;20038;-77
2022/11/27 05:56:45;;;;;;;23.30;22.02;;;4.60;99.90;;;;;;4964082;28;20026;-77
2022/11/27 05:59:11;;;;;;;8.02;7.60;;;4.70;99.90;;;;;;4965366;28;20026;-77
2022/11/27 06:01:37;;;;;;;0.30;0.30;;;4.70;99.90;;;;;;4965709;28;20231;-77
2022/11/27 06:04:03;;;;;;;3.45;3.35;;;4.70;99.90;;;;;;4982791;28;20308;-77
2022/11/27 06:06:29;;;;;;;0.05;0.05;;;4.70;99.90;;;;;;4981255;28;20050;-77
2022/11/27 06:08:55;;;;;;;2.15;2.05;;;;;;;;;;4963985;28;20030;-77
2022/11/27 06:11:22;;;;;;;8.88;4.13;;;4.70;99.90;;;;;;4964776;28;20061;-77
2022/11/27 06:13:48;;;;;;;28.45;26.00;;;4.70;99.90;;;;;;4964754;28;20513;-77
2022/11/27 06:16:21;;;;;;;30.52;20.50;;;4.80;99.90;;;;;;4965324;28;20121;-77
2022/11/27 06:18:51;;;;;;;0.73;0.73;;;4.80;99.90;;;;;;4982025;28;20323;-77
2022/11/27 06:21:18;;;;;;;0.30;0.30;;;4.80;99.90;;;;;;4988487;28;20309;-77
2022/11/27 06:23:44;;;;;;;0.20;0.20;;;4.80;99.90;;;;;;4965293;28;20022;-77
2022/11/27 06:26:10;;;;;;;2.30;2.22;;;;;;;;;;4964899;28;20030;-77
2022/11/27 06:28:37;;;;;;;0.20;0.20;;;4.80;99.90;;;;;;4981963;28;20257;-77
2022/11/27 06:31:16;;;;;;;1.77;1.75;;;4.80;99.90;;;;;;4964450;28;20022;-77
2022/11/27 06:33:42;;;;;;;0.17;0.17;;;4.80;99.90;;;;;;4982249;28;20041;-78
2022/11/27 06:36:09;;;;;;;38.65;21.15;;;4.80;99.90;;;;;;4982253;28;20098;-77
2022/11/27 06:38:36;;;;;;;32.92;7.20;;;4.80;99.90;;;;;;4984011;28;20050;-77
2022/11/27 06:41:08;;;;;;;2.47;2.38;;;4.80;99.90;;;;;;4984569;28;20202;-77
2022/11/27 06:43:34;;;;;;;0.20;0.20;;;4.80;99.90;;;;;;4964767;28;20096;-77
2022/11/27 06:46:02;;;;;;;6.35;6.13;;;4.80;99.90;;;;;;4984246;28;20481;-77
2022/11/27 06:48:29;;;;;;;0.28;0.28;;;;;;;;;;4985178;28;20031;-77
2022/11/27 06:51:05;;;;;;;4.75;4.45;;;4.80;99.90;;;;;;4985681;28;20018;-78
2022/11/27 06:53:33;;;;;;;1.75;1.75;;;4.80;99.90;;;;;;4967593;28;20049;-77
2022/11/27 06:56:04;;;;;;;0.10;0.10;;;4.90;99.90;;;;;;4967628;28;20033;-78
2022/11/27 06:58:32;;;;;;;0.63;0.63;;;4.80;99.90;;;;;;4967839;28;20478;-77
2022/11/27 07:00:59;;;;;;;28.30;26.77;;;4.60;99.90;;;;;;4967756;28;20018;-77
2022/11/27 07:03:26;;;;;;;5.75;5.50;;;5.40;99.90;;;;;;4967240;28;20078;-77
2022/11/27 07:05:53;;;;;;;0.43;0.43;;;;;;;;;;4985304;28;20237;-78
2022/11/27 07:08:21;;;;;;;0.20;0.20;;;4.90;99.90;;;;;;4985310;28;20310;-77
2022/11/27 07:10:48;;;;;;;0.10;0.10;;;4.80;99.90;;;;;;4968593;28;20030;-77
2022/11/27 07:13:14;;;;;;;0.10;0.10;;;4.80;99.90;;;;;;4968681;28;20034;-77
2022/11/27 07:15:39;;;;;;;1.38;1.38;;;4.80;99.90;;;;;;4969446;28;20148;-77
2022/11/27 07:18:05;;;;;;;0.43;0.43;;;;;;;;;;4969308;28;20030;-77
2022/11/27 07:20:31;;;;;;;20.42;7.03;;;;;;;;;;4969104;28;20319;-77
2022/11/27 07:22:57;;;;;;;0.10;0.10;;;4.80;99.90;;;;;;4986812;28;20030;-77
2022/11/27 07:25:23;;;;;;;0.10;0.10;;;4.80;99.90;;;;;;4970277;28;20567;-78
2022/11/27 07:27:52;;;;;;;7.95;7.45;;;4.80;99.90;;;;;;4987353;28;20057;-77
2022/11/27 07:30:19;;;;;;;0.10;0.10;;;4.80;99.90;;;;;;4971711;28;20030;-77
2022/11/27 07:32:46;;;;;;;16.20;15.50;;;4.80;99.90;;;;;;4976222;28;20030;-77
2022/11/27 07:35:12;;;;;;;2.38;2.28;;;4.00;99.90;;;;;;4988697;28;20081;-77
2022/11/27 07:37:38;;;;;;;4.20;3.95;;;4.90;99.90;;;;;;4986588;28;20385;-77
2022/11/27 07:40:04;;;;;;;0.45;0.45;;;4.90;99.90;;;;;;4969452;28;20339;-77
2022/11/27 07:42:31;;;;;;;11.60;10.63;;;5.00;99.90;;;;;;4969473;28;20050;-77
2022/11/27 07:44:58;;;;;;;3.67;3.40;;;5.00;99.90;;;;;;4987173;28;20336;-77
2022/11/27 07:47:24;;;;;;;0.82;0.82;;;5.00;99.90;;;;;;4969481;28;20587;-78
2022/11/27 07:49:57;;;;;;;3.63;3.47;;;4.10;99.90;;;;;;4969153;28;20054;-77
2022/11/27 07:52:24;;;;;;;20.45;11.45;;;5.00;99.90;;;;;;4969356;28;20038;-76
2022/11/27 07:54:49;;;;;;;1.65;1.65;;;5.00;99.90;;;;;;4987220;28;20193;-77
2022/11/27 07:57:15;;;;;;;2.50;2.40;;;5.00;99.90;;;;;;4969263;28;20034;-78
2022/11/27 07:59:44;;;;;;;1.02;1.02;;;5.00;99.90;;;;;;4969156;28;20030;-78
2022/11/27 08:02:14;;;;;;;0.10;0.10;;;5.10;99.90;;;;;;4970074;28;20045;-77
2022/11/27 08:04:50;;;;;;;2.80;2.67;;;7.80;99.90;;;;;;4969593;28;20022;-79
2022/11/27 08:07:17;;;;;;;4.95;4.72;;;;;;;;;;4993166;28;20050;-77
2022/11/27 08:09:43;;;;;;;4.68;3.40;;;;;;;;;;4992498;28;20035;-77
2022/11/27 08:12:09;;;;;;;0.20;0.20;;;;;;;;;;4992544;28;20030;-77
2022/11/27 08:14:35;;;;;;;9.55;5.10;;;5.30;99.90;;;;;;4973129;28;20042;-77
2022/11/27 08:17:03;;;;;;;0.13;0.13;;;5.30;99.90;;;;;;4967388;28;20339;-76
2022/11/27 08:19:29;;;;;;;3.20;3.00;;;;;;;;;;4984903;28;20022;-76
2022/11/27 08:21:56;;;;;;;0.55;0.55;;;5.40;99.90;;;;;;4972785;28;20046;-77
2022/11/27 08:24:23;;;;;;;4.97;4.78;;;;;;;;;;4971695;28;20085;-77
2022/11/27 08:26:52;;;;;;;1.55;1.55;;;5.40;99.90;;;;;;4984437;28;20045;-77
2022/11/27 08:29:18;;;;;;;1.85;1.75;;;;;;;;;;4968731;28;20745;-77
2022/11/27 08:31:44;;;;;;;0.10;0.10;;;5.40;99.90;;;;;;4984023;28;20084;-76
2022/11/27 08:34:11;;;;;;;0.77;0.77;;;8.60;99.90;;;;;;4967707;28;20038;-77
2022/11/27 08:36:37;;;;;;;1.92;1.83;;;5.60;99.90;;;;;;4983587;28;20097;-77
2022/11/27 08:39:04;;;;;;;6.47;6.07;;;5.50;99.90;;;;;;4984020;28;20037;-76
2022/11/27 08:41:33;;;;;;;64.32;51.35;;;5.60;99.90;;;;;;4966531;28;20030;-76
2022/11/27 08:43:59;;;;;;;0.20;0.20;;;5.70;99.90;;;;;;4984557;28;20022;-76
2022/11/27 08:46:25;;;;;;;1.83;1.83;;;4.50;99.90;;;;;;4966672;28;20037;-76
2022/11/27 08:48:50;;;;;;;0.20;0.20;;;5.70;99.90;;;;;;4967258;28;20019;-76
2022/11/27 08:51:16;;;;;;;6.32;6.03;;;5.70;99.90;;;;;;4984694;28;20025;-77
2022/11/27 08:53:44;;;;;;;0.95;0.95;;;5.70;99.90;;;;;;4987753;28;20030;-77
2022/11/27 08:56:16;;;;;;;1.42;1.35;;;5.70;99.90;;;;;;4985119;28;20029;-76
2022/11/27 08:58:42;;;;;;;21.92;20.88;;;5.70;99.90;;;;;;4985694;28;20034;-77
2022/11/27 09:01:14;;;;;;;163.20;152.00;;;5.80;99.90;;;;;;4983814;28;20022;-76
2022/11/27 09:03:41;;;;;;;12.20;11.77;;;5.70;99.90;;;;;;4987345;28;20026;-77
2022/11/27 09:06:20;;;;;;;14.55;13.35;;;5.70;99.90;;;;;;4986317;28;20410;-76
2022/11/27 09:08:46;;;;;;;1.95;1.85;;;5.70;99.90;;;;;;4984741;28;20662;-77
2022/11/27 09:11:14;;;;;;;3.80;3.60;;;5.70;99.90;;;;;;4985608;28;20026;-77
2022/11/27 09:13:41;;;;;;;1.02;1.02;;;5.70;99.90;;;;;;4985353;28;20096;-77
2022/11/27 09:16:12;;;;;;;1.17;1.17;;;2.90;99.90;;;;;;4967018;28;20188;-77
2022/11/27 09:18:38;;;;;;;0.60;0.60;;;7.10;99.90;;;;;;4965663;28;20072;-76
2022/11/27 09:21:08;;;;;;;0.10;0.10;;;5.60;99.90;;;;;;4967434;28;20030;-76
2022/11/27 09:23:34;;;;;;;60.83;57.80;;;5.60;99.90;;;;;;4983065;28;20026;-76
2022/11/27 09:26:05;;;;;;;0.10;0.10;;;5.60;99.90;;;;;;4984386;28;20026;-76
2022/11/27 09:28:35;;;;;;;2.40;2.30;;;6.10;99.90;;;;;;4983568;28;20041;-76
2022/11/27 09:31:04;;;;;;;0.15;0.15;;;5.60;99.90;;;;;;4982974;28;20042;-77
2022/11/27 09:33:31;;;;;;;63.25;12.70;;;5.60;99.90;;;;;;4964813;28;20038;-76
2022/11/27 09:35:57;;;;;;;0.10;0.10;;;;;;;;;;4986922;28;20027;-76
2022/11/27 09:38:23;;;;;;;0.20;0.20;;;5.60;99.90;;;;;;4983129;28;20035;-77
2022/11/27 09:40:52;;;;;;;0.73;0.73;;;5.60;99.90;;;;;;4984547;28;20023;-77
2022/11/27 09:43:26;;;;;;;0.10;0.10;;;5.60;99.90;;;;;;4969483;28;20022;-76
2022/11/27 09:45:56;;;;;;;0.10;0.10;;;5.60;99.90;;;;;;4966101;28;20919;-76
2022/11/27 09:48:39;;;;;;;4.47;4.28;;;5.60;99.90;;;;;;4982791;28;20022;-76
2022/11/27 09:51:20;;;;;;;0.17;0.17;;;5.60;99.90;;;;;;4983499;28;20015;-77
2022/11/27 09:53:51;;;;;;;0.70;0.70;;;5.20;99.90;;;;;;4982740;28;20043;-76
2022/11/27 09:56:31;;;;;;;0.75;0.75;;;5.50;99.90;;;;;;4985655;28;20194;-76
2022/11/27 09:58:58;;;;;;;0.20;0.20;;;5.50;99.90;;;;;;4983770;28;20596;-76
2022/11/27 10:01:32;;;;;;;2.85;2.63;;;5.40;99.90;;;;;;4981126;28;20026;-75
2022/11/27 10:04:00;;;;;;;0.20;0.20;;;5.40;99.90;;;;;;4980526;28;20030;-74
2022/11/27 10:07:00;;;;;;;2.78;2.67;;;5.70;99.90;;;;;;4981042;28;20041;-75
2022/11/27 10:09:53;;;;;;;8.85;8.55;;;5.70;99.90;;;;;;4981391;28;20034;-74
2022/11/27 10:12:55;;;;;;;0.10;0.10;;;5.60;99.90;;;;;;4984554;28;20046;-74
2022/11/27 10:16:01;;;;;;;0.10;0.10;;;5.70;99.90;;;;;;4982091;28;20681;-75
2022/11/27 10:18:47;;;;;;;0.10;0.10;;;5.70;99.90;;;;;;4966031;28;20287;-74
2022/11/27 10:21:34;;;;;;;21.23;19.98;;;5.50;99.90;;;;;;4967432;28;20598;-75
2022/11/27 10:24:18;;;;;;;38.63;36.72;;;4.60;99.90;;;;;;4991482;28;20018;-74
2022/11/27 10:26:49;;;;;;;0.20;0.20;;;5.10;99.90;;;;;;4985831;28;20023;-74
2022/11/27 10:29:38;;;;;;;0.15;0.15;;;5.60;99.90;;;;;;4984582;28;20022;-74
2022/11/27 10:32:26;;;;;;;7.13;6.43;;;5.70;99.90;;;;;;4985011;28;20080;-74
2022/11/27 10:35:16;;;;;;;0.20;0.20;;;5.80;99.90;;;;;;4985237;28;20030;-74
2022/11/27 10:37:47;;;;;;;1.95;1.48;;;5.80;99.90;;;;;;4984927;28;20030;-74
2022/11/27 10:40:13;;;;;;;2.58;2.47;;;5.90;99.90;;;;;;4967314;28;20480;-74
2022/11/27 10:43:03;;;;;;;1.58;1.48;;;5.90;99.90;;;;;;4985424;28;20038;-74
2022/11/27 10:45:47;;;;;;;0.30;0.30;;;5.90;99.90;;;;;;4985561;28;20394;-74
2022/11/27 10:48:13;;;;;;;0.10;0.10;;;5.90;99.90;;;;;;4987489;28;20169;-75
2022/11/27 10:50:40;;;;;;;0.20;0.20;;;5.80;99.90;;;;;;4986219;28;20018;-74
2022/11/27 10:53:21;;;;;;;9.68;9.23;;;5.90;99.90;;;;;;4985220;28;20080;-74
2022/11/27 10:55:59;;;;;;;1.35;1.33;;;5.80;99.90;;;;;;4984813;28;20081;-75
2022/11/27 10:58:42;;;;;;;0.10;0.10;;;5.80;99.90;;;;;;4967487;28;20703;-75
2022/11/27 11:01:11;;;;;;;79.35;74.38;;;5.90;99.90;;;;;;4984685;28;20027;-75
2022/11/27 11:03:38;;;;;;;0.30;0.30;;;5.90;99.90;;;;;;4967684;28;20393;-74
2022/11/27 11:06:08;;;;;;;37.85;36.20;;;5.90;99.90;;;;;;4967172;28;20256;-75
2022/11/27 11:08:35;;;;;;;0.10;0.10;;;6.10;99.90;;;;;;4983752;28;20667;-75
2022/11/27 11:11:04;;;;;;;17.23;16.42;;;6.10;99.90;;;;;;4985254;28;20055;-75
2022/11/27 11:13:50;;;;;;;19.52;18.63;;;6.10;99.90;;;;;;4985489;28;20022;-75
2022/11/27 11:16:19;;;;;;;0.98;0.98;;;6.10;99.90;;;;;;4986792;28;20050;-74
2022/11/27 11:18:52;;;;;;;0.35;0.35;;;6.20;99.90;;;;;;4990001;28;20026;-75
2022/11/27 11:21:40;;;;;;;0.17;0.17;;;6.20;99.90;;;;;;4988324;28;20057;-74
2022/11/27 11:24:28;;;;;;;0.13;0.13;;;6.20;99.90;;;;;;4973100;28;20152;-74
2022/11/27 11:26:59;;;;;;;0.15;0.15;;;6.20;99.90;;;;;;4990035;28;20037;-74
2022/11/27 11:29:36;;;;;;;0.80;0.80;;;6.30;99.90;;;;;;4988230;28;20014;-75
2022/11/27 11:32:12;;;;;;;0.30;0.30;;;6.30;99.90;;;;;;4993329;28;20029;-75
2022/11/27 11:34:44;;;;;;;1.90;1.85;;;6.20;99.90;;;;;;4990586;28;20038;-75
2022/11/27 11:37:28;;;;;;;0.20;0.20;;;6.20;99.90;;;;;;4971197;28;20108;-75
2022/11/27 11:40:08;;;;;;;3.33;3.22;;;6.20;99.90;;;;;;4988019;28;20029;-75
2022/11/27 11:42:37;;;;;;;0.10;0.10;;;6.20;99.90;;;;;;4988912;28;20026;-75
2022/11/27 11:45:15;;;;;;;0.10;0.10;;;6.20;99.90;;;;;;4986868;28;20030;-74
2022/11/27 11:47:48;;;;;;;2.60;2.50;;;6.30;99.90;;;;;;4966867;28;20576;-75
2022/11/27 11:50:34;;;;;;;56.17;52.55;;;6.40;99.90;;;;;;4983757;28;20019;-75
2022/11/27 11:53:17;;;;;;;0.20;0.20;;;6.40;99.90;;;;;;4966859;28;20073;-74
2022/11/27 11:56:23;;;;;;;68.85;65.40;;;6.40;99.90;;;;;;4965284;28;20418;-74
2022/11/27 11:59:01;;;;;;;1.88;1.85;;;6.40;99.90;;;;;;4966164;28;20019;-74
2022/11/27 12:01:52;;;;;;;0.47;0.47;;;6.40;99.90;;;;;;4983075;28;20666;-75
2022/11/27 12:05:01;;;;;;;0.52;0.52;;;5.50;99.90;;;;;;4982508;28;20015;-75
2022/11/27 12:07:57;;;;;;;22.00;20.90;;;6.30;99.90;;;;;;4983228;28;20046;-75
2022/11/27 12:10:26;;;;;;;0.10;0.10;;;6.30;99.90;;;;;;4982456;28;20026;-74
2022/11/27 12:13:19;;;;;;;3.63;3.28;;;6.30;99.90;;;;;;4982422;28;20026;-75
2022/11/27 12:15:57;;;;;;;0.38;0.38;;;6.30;99.90;;;;;;4982158;28;20088;-75
2022/11/27 12:18:53;;;;;;;0.90;0.90;;;6.30;99.90;;;;;;4982424;28;20033;-74
2022/11/27 12:21:42;;;;;;;33.33;31.88;;;6.30;99.90;;;;;;4983032;28;20673;-75
2022/11/27 12:24:40;;;;;;;0.10;0.10;;;6.40;99.90;;;;;;4983367;28;20022;-75
2022/11/27 12:27:10;;;;;;;0.10;0.10;;;6.40;99.90;;;;;;4869660;29;20025;-75
2022/11/27 12:30:01;;;;;;;1.48;1.48;;;6.40;99.90;;;;;;4884687;29;20021;-75
2022/11/27 12:32:33;;;;;;;0.20;0.20;;;6.30;99.90;;;;;;4867985;29;20048;-75
2022/11/27 12:35:20;;;;;;;6.95;6.22;;;6.70;99.90;;;;;;4885927;29;20065;-76
2022/11/27 12:38:12;;;;;;;2.08;1.98;;;6.30;99.90;;;;;;4884570;29;20120;-75
2022/11/27 12:40:47;;;;;;;2.15;2.13;;;7.00;99.90;;;;;;4888471;29;20032;-74
2022/11/27 12:43:29;;;;;;;0.10;0.10;;;6.10;99.90;;;;;;4883805;29;20043;-75
2022/11/27 12:46:16;;;;;;;0.20;0.20;;;6.10;99.90;;;;;;4882356;29;20033;-75
2022/11/27 12:48:52;;;;;;;0.20;0.20;;;6.20;99.90;;;;;;4883768;29;20035;-75
2022/11/27 12:51:23;;;;;;;2.65;2.55;;;6.30;99.90;;;;;;4883022;29;20036;-74
2022/11/27 12:54:09;;;;;;;10.50;9.82;;;6.30;99.90;;;;;;4883183;29;20047;-75
2022/11/27 12:56:47;;;;;;;5.57;5.28;;;6.30;99.90;;;;;;4882814;29;20699;-74
2022/11/27 12:59:42;;;;;;;0.10;0.10;;;6.30;99.90;;;;;;4883895;29;20029;-75
2022/11/27 13:02:45;;;;;;;0.10;0.10;;;6.30;99.90;;;;;;4885584;29;20099;-75
2022/11/27 13:05:21;;;;;;;0.10;0.10;;;6.40;99.90;;;;;;4986115;28;20014;-75
2022/11/27 13:08:03;;;;;;;0.75;0.75;;;6.40;99.90;;;;;;4985126;28;20315;-75
2022/11/27 13:10:41;;;;;;;0.38;0.35;;;6.40;99.90;;;;;;4983544;28;20018;-75
2022/11/27 13:13:35;;;;;;;0.10;0.10;;;6.50;99.90;;;;;;4982226;28;20026;-74
2022/11/27 13:16:04;;;;;;;1.10;1.10;;;6.40;99.90;;;;;;4983349;28;20026;-74
2022/11/27 13:18:35;;;;;;;1.20;1.20;;;6.40;99.90;;;;;;4964151;28;20062;-74
2022/11/27 13:21:06;;;;;;;3.22;3.08;;;6.30;99.90;;;;;;4981572;28;20092;-74
2022/11/27 13:23:32;;;;;;;0.20;0.20;;;7.80;99.90;;;;;;4965010;28;20038;-74
2022/11/27 13:26:02;;;;;;;0.45;0.45;;;6.30;99.90;;;;;;4981907;28;20042;-74
2022/11/27 13:28:42;;;;;;;4.30;4.03;;;6.40;99.90;;;;;;4981656;28;20019;-74